createdAt,value
2023-01-20T00:00:25.139Z,2.10
2023-01-20T00:02:57.440Z,2.11
2023-01-20T00:05:27.221Z,1.93
2023-01-20T00:07:56.849Z,2.11
2023-01-20T00:10:26.751Z,1.88
2023-01-20T00:12:57.365Z,2.15
2023-01-20T00:15:26.990Z,2.25
2023-01-20T00:18:00.685Z,1.95
2023-01-20T00:20:30.389Z,1.87
2023-01-20T00:23:00.109Z,1.85
2023-01-20T00:25:29.846Z,1.80
2023-01-20T00:27:59.500Z,1.82
2023-01-20T00:30:29.243Z,1.96
2023-01-20T00:33:01.740Z,2.08
2023-01-20T00:35:31.422Z,1.98
2023-01-20T00:38:01.069Z,1.97
2023-01-20T00:40:30.640Z,1.96
2023-01-20T00:43:00.269Z,1.98
2023-01-20T00:45:29.885Z,1.94
2023-01-20T00:48:02.138Z,1.91
2023-01-20T00:50:31.762Z,1.78
2023-01-20T00:53:01.449Z,1.71
2023-01-20T00:55:31.058Z,1.62
2023-01-20T00:58:00.691Z,1.63
2023-01-20T01:00:30.523Z,1.69
2023-01-20T01:03:02.737Z,1.72
2023-01-20T01:05:32.387Z,1.72
2023-01-20T01:08:02.064Z,1.65
2023-01-20T01:10:31.754Z,1.59
2023-01-20T01:13:01.787Z,1.63
2023-01-20T01:15:31.797Z,1.78
2023-01-20T01:18:04.421Z,1.86
2023-01-20T01:20:34.412Z,1.76
2023-01-20T01:23:04.037Z,1.38
2023-01-20T01:25:33.689Z,1.65
2023-01-20T01:28:03.290Z,1.78
2023-01-20T01:30:32.979Z,1.78
2023-01-20T01:33:05.307Z,1.75
2023-01-20T01:35:35.079Z,1.50
2023-01-20T01:38:04.747Z,1.45
2023-01-20T01:40:35.597Z,1.69
2023-01-20T01:43:05.257Z,1.78
2023-01-20T01:45:35.810Z,1.78
2023-01-20T01:48:12.270Z,1.89
2023-01-20T01:50:48.338Z,1.86
2023-01-20T01:53:18.507Z,1.89
2023-01-20T01:55:52.807Z,1.59
2023-01-20T01:58:27.331Z,1.74
2023-01-20T02:00:57.171Z,1.76
2023-01-20T02:03:34.437Z,1.82
2023-01-20T02:06:05.344Z,1.83
2023-01-20T02:08:35.092Z,1.87
2023-01-20T02:11:04.688Z,1.76
2023-01-20T02:13:34.662Z,1.80
2023-01-20T02:16:13.142Z,1.81
2023-01-20T02:19:02.983Z,1.81
2023-01-20T02:21:57.418Z,1.52
2023-01-20T02:25:03.796Z,1.82
2023-01-20T02:28:04.363Z,1.64
2023-01-20T02:31:01.472Z,1.82
2023-01-20T02:33:39.574Z,1.91
2023-01-20T02:36:12.501Z,1.82
2023-01-20T02:38:50.102Z,1.87
2023-01-20T02:41:24.414Z,1.84
2023-01-20T02:44:00.553Z,1.82
2023-01-20T02:46:36.451Z,2.00
2023-01-20T02:49:15.366Z,2.02
2023-01-20T02:51:50.822Z,2.02
2023-01-20T02:54:23.238Z,1.91
2023-01-20T02:56:55.562Z,2.09
2023-01-20T02:59:28.394Z,1.84
2023-01-20T03:02:02.689Z,1.90
2023-01-20T03:04:41.326Z,2.18
2023-01-20T03:07:14.247Z,2.13
2023-01-20T03:09:47.685Z,2.23
2023-01-20T03:12:22.467Z,2.27
2023-01-20T03:14:52.566Z,2.35
2023-01-20T03:17:22.678Z,2.24
2023-01-20T03:19:55.005Z,2.32
2023-01-20T03:22:25.120Z,2.37
2023-01-20T03:24:55.426Z,2.37
2023-01-20T03:27:25.123Z,2.39
2023-01-20T03:29:54.796Z,2.29
2023-01-20T03:32:27.018Z,2.34
2023-01-20T03:34:59.769Z,2.28
2023-01-20T03:37:29.783Z,2.05
2023-01-20T03:39:59.528Z,2.48
2023-01-20T03:42:36.461Z,2.47
2023-01-20T03:45:11.547Z,2.29
2023-01-20T03:47:58.021Z,2.47
2023-01-20T03:50:42.578Z,2.61
2023-01-20T03:53:20.943Z,2.59
2023-01-20T03:55:54.447Z,2.78
2023-01-20T03:58:29.832Z,2.68
2023-01-20T04:01:00.680Z,2.72
2023-01-20T04:03:34.081Z,2.67
2023-01-20T04:06:08.945Z,2.53
2023-01-20T04:08:42.638Z,2.61
2023-01-20T04:11:12.528Z,2.73
2023-01-20T04:13:42.281Z,2.83
2023-01-20T04:16:16.855Z,2.84
2023-01-20T04:18:49.424Z,2.86
2023-01-20T04:21:27.772Z,2.93
2023-01-20T04:24:03.631Z,3.03
2023-01-20T04:26:33.374Z,3.00
2023-01-20T04:29:11.067Z,3.06
2023-01-20T04:31:42.447Z,2.92
2023-01-20T04:34:16.369Z,3.07
2023-01-20T04:36:48.577Z,3.18
2023-01-20T04:39:18.276Z,3.07
2023-01-20T04:41:48.760Z,3.11
2023-01-20T04:44:18.426Z,3.31
2023-01-20T04:46:48.138Z,3.27
2023-01-20T04:49:17.831Z,3.33
2023-01-20T04:51:50.021Z,3.34
2023-01-20T04:54:19.625Z,3.33
2023-01-20T04:56:50.848Z,3.30
2023-01-20T04:59:20.483Z,3.32
2023-01-20T05:01:50.243Z,3.27
2023-01-20T05:04:19.945Z,3.35
2023-01-20T05:06:52.209Z,3.35
2023-01-20T05:09:22.168Z,3.31
2023-01-20T05:11:51.788Z,3.45
2023-01-20T05:14:21.384Z,3.45
2023-01-20T05:16:51.013Z,3.42
2023-01-20T05:19:20.781Z,3.45
2023-01-20T05:21:53.082Z,3.51
2023-01-20T05:24:23.014Z,3.47
2023-01-20T05:26:52.648Z,3.37
2023-01-20T05:29:22.236Z,3.43
2023-01-20T05:31:51.838Z,3.31
2023-01-20T05:34:21.458Z,3.10
2023-01-20T05:36:57.109Z,3.32
2023-01-20T05:39:26.852Z,3.25
2023-01-20T05:41:56.484Z,3.28
2023-01-20T05:44:26.103Z,3.23
2023-01-20T05:46:55.929Z,3.18
2023-01-20T05:49:25.589Z,2.89
2023-01-20T05:51:57.808Z,3.22
2023-01-20T05:54:28.341Z,3.10
2023-01-20T05:56:59.058Z,3.17
2023-01-20T05:59:29.059Z,3.25
2023-01-20T06:01:58.976Z,3.29
2023-01-20T06:04:28.621Z,3.30
2023-01-20T06:07:00.908Z,3.15
2023-01-20T06:09:30.604Z,3.27
2023-01-20T06:12:00.236Z,3.29
2023-01-20T06:14:29.875Z,3.28
2023-01-20T06:16:59.502Z,3.18
2023-01-20T06:19:29.104Z,3.40
2023-01-20T06:22:01.384Z,3.51
2023-01-20T06:24:31.083Z,3.42
2023-01-20T06:27:00.789Z,3.25
2023-01-20T06:29:30.432Z,3.23
2023-01-20T06:32:00.180Z,3.09
2023-01-20T06:34:29.815Z,3.26
2023-01-20T06:37:02.317Z,3.13
2023-01-20T06:39:32.340Z,3.20
2023-01-20T06:42:02.884Z,3.21
2023-01-20T06:44:33.916Z,3.21
2023-01-20T06:47:03.645Z,3.35
2023-01-20T06:49:33.649Z,3.27
2023-01-20T06:52:06.591Z,3.49
2023-01-20T06:54:36.257Z,3.19
2023-01-20T06:57:06.142Z,3.69
2023-01-20T06:59:35.801Z,4.45
2023-01-20T07:02:05.556Z,4.15
2023-01-20T07:04:35.295Z,3.97
2023-01-20T07:07:07.591Z,3.84
2023-01-20T07:09:37.260Z,3.56
2023-01-20T07:12:07.141Z,3.46
2023-01-20T07:14:36.824Z,3.51
2023-01-20T07:17:06.711Z,3.51
2023-01-20T07:19:36.337Z,3.47
2023-01-20T07:22:08.728Z,3.50
2023-01-20T07:24:38.660Z,3.29
2023-01-20T07:27:08.519Z,3.24
2023-01-20T07:29:38.390Z,3.11
2023-01-20T07:32:08.508Z,2.98
2023-01-20T07:34:38.363Z,3.02
2023-01-20T07:37:10.990Z,3.01
2023-01-20T07:39:42.290Z,2.72
2023-01-20T07:42:12.372Z,3.03
2023-01-20T07:44:42.042Z,2.83
2023-01-20T07:47:11.751Z,3.02
2023-01-20T07:49:41.437Z,3.11
2023-01-20T07:52:13.704Z,3.33
2023-01-20T07:54:43.361Z,3.20
2023-01-20T07:57:13.044Z,3.35
2023-01-20T07:59:42.694Z,3.40
2023-01-20T08:02:12.653Z,3.47
2023-01-20T08:04:43.229Z,3.48
2023-01-20T08:07:15.591Z,3.61
2023-01-20T08:09:45.205Z,3.57
2023-01-20T08:12:14.833Z,3.52
2023-01-20T08:14:44.482Z,3.40
2023-01-20T08:17:14.166Z,3.37
2023-01-20T08:19:43.790Z,3.22
2023-01-20T08:22:16.353Z,3.25
2023-01-20T08:24:45.973Z,3.24
2023-01-20T08:27:15.659Z,3.21
2023-01-20T08:29:45.440Z,3.34
2023-01-20T08:32:15.091Z,3.28
2023-01-20T08:34:44.733Z,3.19
2023-01-20T08:37:16.968Z,3.36
2023-01-20T08:39:46.663Z,3.36
2023-01-20T08:42:16.378Z,3.51
2023-01-20T08:44:47.436Z,3.58
2023-01-20T08:47:17.071Z,3.71
2023-01-20T08:49:46.669Z,3.73
2023-01-20T08:52:18.918Z,3.86
2023-01-20T08:54:48.679Z,3.84
2023-01-20T08:57:18.335Z,3.70
2023-01-20T08:59:48.812Z,3.72
2023-01-20T09:02:18.600Z,3.72
2023-01-20T09:04:50.112Z,3.56
2023-01-20T09:07:23.129Z,3.38
2023-01-20T09:09:52.947Z,3.21
2023-01-20T09:12:22.643Z,3.34
2023-01-20T09:14:52.877Z,3.25
2023-01-20T09:17:22.512Z,3.12
2023-01-20T09:19:52.148Z,3.17
2023-01-20T09:22:24.430Z,3.33
2023-01-20T09:24:54.827Z,3.34
2023-01-20T09:27:25.489Z,3.41
2023-01-20T09:29:55.155Z,3.36
2023-01-20T09:32:24.809Z,3.35
2023-01-20T09:34:54.594Z,3.15
2023-01-20T09:37:39.367Z,3.28
2023-01-20T09:40:27.166Z,3.17
2023-01-20T09:43:23.319Z,3.18
2023-01-20T09:45:59.328Z,3.44
2023-01-20T09:48:49.832Z,3.40
2023-01-20T09:51:39.160Z,3.71
2023-01-20T09:54:17.886Z,3.53
2023-01-20T09:56:51.161Z,3.57
2023-01-20T09:59:27.690Z,3.64
2023-01-20T10:02:01.001Z,3.52
2023-01-20T10:04:38.841Z,3.62
2023-01-20T10:07:15.638Z,3.67
2023-01-20T10:09:53.067Z,3.74
2023-01-20T10:12:30.070Z,3.70
2023-01-20T10:15:04.958Z,3.62
2023-01-20T10:17:38.731Z,3.70
2023-01-20T10:20:15.697Z,3.90
2023-01-20T10:22:50.685Z,4.00
2023-01-20T10:25:25.706Z,4.03
2023-01-20T10:27:58.903Z,4.16
2023-01-20T10:30:34.387Z,4.22
2023-01-20T10:33:11.580Z,4.45
2023-01-20T10:35:45.235Z,4.48
2023-01-20T10:38:23.871Z,4.36
2023-01-20T10:41:01.410Z,4.56
2023-01-20T10:43:31.092Z,4.48
2023-01-20T10:46:19.509Z,4.65
2023-01-20T10:49:21.241Z,4.38
2023-01-20T10:52:00.044Z,4.53
2023-01-20T10:54:40.590Z,4.31
2023-01-20T10:57:16.021Z,4.30
2023-01-20T10:59:48.473Z,4.40
2023-01-20T11:02:22.088Z,4.48
2023-01-20T11:04:57.820Z,4.49
2023-01-20T11:07:28.795Z,4.51
2023-01-20T11:09:58.519Z,4.42
2023-01-20T11:12:35.698Z,4.31
2023-01-20T11:15:17.717Z,4.43
2023-01-20T11:17:47.492Z,4.30
2023-01-20T11:20:22.413Z,4.50
2023-01-20T11:22:52.783Z,4.46
2023-01-20T11:25:28.388Z,4.62
2023-01-20T11:28:02.865Z,4.70
2023-01-20T11:30:35.055Z,4.66
2023-01-20T11:33:11.973Z,4.68
2023-01-20T11:35:41.646Z,4.51
2023-01-20T11:38:25.754Z,4.66
2023-01-20T11:40:57.392Z,4.78
2023-01-20T11:43:34.552Z,4.82
2023-01-20T11:46:16.379Z,4.61
2023-01-20T11:48:46.152Z,4.94
2023-01-20T11:51:25.457Z,5.02
2023-01-20T11:54:09.774Z,4.88
2023-01-20T11:56:43.679Z,5.06
2023-01-20T11:59:27.089Z,5.06
2023-01-20T12:02:02.076Z,5.08
2023-01-20T12:05:07.456Z,5.16
2023-01-20T12:07:40.544Z,5.01
2023-01-20T12:10:19.184Z,4.94
2023-01-20T12:12:54.356Z,5.33
2023-01-20T12:15:29.799Z,5.25
2023-01-20T12:18:04.375Z,5.40
2023-01-20T12:20:54.046Z,5.48
2023-01-20T12:23:36.010Z,5.37
2023-01-20T12:26:07.561Z,5.39
2023-01-20T12:28:45.720Z,5.53
2023-01-20T12:31:20.956Z,5.56
2023-01-20T12:33:53.434Z,5.56
2023-01-20T12:36:47.668Z,5.51
2023-01-20T12:39:38.401Z,5.62
2023-01-20T12:42:38.496Z,5.47
2023-01-20T12:45:21.936Z,5.50
2023-01-20T12:48:08.530Z,5.55
2023-01-20T12:50:53.744Z,5.51
2023-01-20T12:53:39.419Z,5.31
2023-01-20T12:56:21.029Z,5.71
2023-01-20T12:59:00.485Z,5.70
2023-01-20T13:01:47.655Z,5.31
2023-01-20T13:04:47.015Z,5.43
2023-01-20T13:07:25.285Z,5.42
2023-01-20T13:10:19.300Z,5.44
2023-01-20T13:12:58.813Z,5.22
2023-01-20T13:15:32.038Z,5.48
2023-01-20T13:18:20.052Z,5.24
2023-01-20T13:20:55.081Z,5.32
2023-01-20T13:23:29.064Z,4.93
2023-01-20T13:26:00.560Z,5.15
2023-01-20T13:28:32.873Z,5.20
2023-01-20T13:31:04.374Z,5.13
2023-01-20T13:33:40.654Z,5.27
2023-01-20T13:36:21.870Z,5.32
2023-01-20T13:38:53.543Z,5.41
2023-01-20T13:41:54.435Z,5.30
2023-01-20T13:44:37.754Z,5.41
2023-01-20T13:47:11.240Z,5.40
2023-01-20T13:49:52.927Z,5.30
2023-01-20T13:53:07.820Z,5.29
2023-01-20T13:55:54.497Z,5.41
2023-01-20T13:58:26.699Z,5.29
2023-01-20T14:00:58.071Z,5.08
2023-01-20T14:03:31.640Z,5.30
2023-01-20T14:06:03.683Z,5.39
2023-01-20T14:08:41.677Z,5.62
2023-01-20T14:11:15.827Z,5.62
2023-01-20T14:13:53.987Z,5.52
2023-01-20T14:16:27.182Z,5.42
2023-01-20T14:18:59.580Z,5.48
2023-01-20T14:21:30.684Z,5.43
2023-01-20T14:24:04.315Z,5.38
2023-01-20T14:26:34.641Z,5.35
2023-01-20T14:29:05.340Z,5.34
2023-01-20T14:31:40.792Z,5.34
2023-01-20T14:34:28.036Z,5.31
2023-01-20T14:37:00.439Z,5.31
2023-01-20T14:39:33.721Z,5.49
2023-01-20T14:42:04.378Z,5.56
2023-01-20T14:44:35.681Z,5.50
2023-01-20T14:47:06.727Z,5.58
2023-01-20T14:49:39.566Z,5.54
2023-01-20T14:52:10.283Z,5.57
2023-01-20T14:54:45.837Z,5.40
2023-01-20T14:57:30.951Z,5.48
2023-01-20T15:00:07.659Z,5.27
2023-01-20T15:02:39.502Z,5.51
2023-01-20T15:05:23.096Z,5.39
2023-01-20T15:08:05.771Z,5.43
2023-01-20T15:10:38.076Z,5.36
2023-01-20T15:13:21.988Z,5.37
2023-01-20T15:15:51.753Z,5.32
2023-01-20T15:18:24.388Z,5.16
2023-01-20T15:21:11.751Z,5.24
2023-01-20T15:23:52.483Z,5.28
2023-01-20T15:26:31.919Z,5.27
2023-01-20T15:29:01.680Z,5.25
2023-01-20T15:31:31.353Z,5.23
2023-01-20T15:34:00.990Z,5.18
2023-01-20T15:36:33.211Z,5.32
2023-01-20T15:39:02.869Z,5.27
2023-01-20T15:41:35.065Z,5.28
2023-01-20T15:44:04.746Z,5.25
2023-01-20T15:46:34.624Z,5.29
2023-01-20T15:49:04.312Z,5.18
2023-01-20T15:51:33.999Z,5.29
2023-01-20T15:54:03.620Z,5.22
2023-01-20T15:56:38.308Z,5.16
2023-01-20T15:59:14.736Z,5.15
2023-01-20T16:01:47.231Z,5.22
2023-01-20T16:04:17.143Z,5.23
2023-01-20T16:06:47.611Z,5.22
2023-01-20T16:09:20.089Z,5.08
2023-01-20T16:11:52.405Z,5.13
2023-01-20T16:14:22.246Z,5.17
2023-01-20T16:16:51.894Z,5.12
2023-01-20T16:19:21.700Z,4.85
2023-01-20T16:21:51.350Z,5.07
2023-01-20T16:24:21.014Z,5.00
2023-01-20T16:26:53.261Z,5.06
2023-01-20T16:29:22.878Z,4.99
2023-01-20T16:31:52.578Z,4.97
2023-01-20T16:34:22.275Z,4.96
2023-01-20T16:36:51.952Z,5.04
2023-01-20T16:39:21.603Z,4.93
2023-01-20T16:41:53.801Z,5.09
2023-01-20T16:44:23.615Z,4.98
2023-01-20T16:46:53.251Z,5.07
2023-01-20T16:49:22.923Z,5.06
2023-01-20T16:51:52.602Z,4.97
2023-01-20T16:54:22.307Z,5.07
2023-01-20T16:56:54.647Z,5.12
2023-01-20T16:59:25.942Z,5.05
2023-01-20T17:01:56.101Z,5.11
2023-01-20T17:04:25.931Z,5.13
2023-01-20T17:06:55.949Z,5.06
2023-01-20T17:09:25.791Z,5.03
2023-01-20T17:11:58.033Z,4.89
2023-01-20T17:14:27.707Z,4.88
2023-01-20T17:16:59.732Z,4.74
2023-01-20T17:19:32.144Z,4.62
2023-01-20T17:22:01.882Z,4.70
2023-01-20T17:24:33.080Z,4.48
2023-01-20T17:27:05.560Z,4.70
2023-01-20T17:29:35.599Z,4.59
2023-01-20T17:32:05.538Z,4.49
2023-01-20T17:34:35.414Z,4.36
2023-01-20T17:37:05.065Z,4.51
2023-01-20T17:39:34.680Z,4.51
2023-01-20T17:42:07.451Z,4.50
2023-01-20T17:44:37.919Z,5.46
2023-01-20T17:47:08.164Z,4.92
2023-01-20T17:49:38.026Z,4.68
2023-01-20T17:52:07.999Z,4.62
2023-01-20T17:54:38.068Z,4.56
2023-01-20T17:57:10.516Z,4.59
2023-01-20T17:59:40.157Z,4.49
2023-01-20T18:02:11.874Z,4.19
2023-01-20T18:04:41.516Z,4.37
2023-01-20T18:07:11.408Z,4.35
2023-01-20T18:09:43.013Z,4.51
2023-01-20T18:12:15.756Z,4.46
2023-01-20T18:14:45.599Z,4.38
2023-01-20T18:17:15.208Z,4.41
2023-01-20T18:19:44.847Z,4.33
2023-01-20T18:22:15.197Z,4.30
2023-01-20T18:24:45.102Z,4.20
2023-01-20T18:27:18.818Z,4.30
2023-01-20T18:29:51.569Z,4.23
2023-01-20T18:32:21.485Z,4.28
2023-01-20T18:34:51.366Z,4.15
2023-01-20T18:37:20.966Z,4.13
2023-01-20T18:39:50.852Z,4.10
2023-01-20T18:42:23.294Z,4.10
2023-01-20T18:44:52.929Z,3.87
2023-01-20T18:47:22.606Z,4.07
2023-01-20T18:49:52.241Z,4.09
2023-01-20T18:52:22.161Z,4.08
2023-01-20T18:54:52.110Z,4.12
2023-01-20T18:57:24.624Z,4.05
2023-01-20T18:59:54.322Z,4.07
2023-01-20T19:02:24.013Z,4.00
2023-01-20T19:04:53.652Z,3.93
2023-01-20T19:07:23.744Z,3.93
2023-01-20T19:09:53.760Z,3.86
2023-01-20T19:12:26.450Z,3.94
2023-01-20T19:14:56.143Z,3.82
2023-01-20T19:17:26.817Z,3.73
2023-01-20T19:19:56.441Z,3.77
2023-01-20T19:22:26.391Z,3.76
2023-01-20T19:24:56.045Z,3.59
2023-01-20T19:27:28.269Z,3.67
2023-01-20T19:29:57.891Z,3.57
2023-01-20T19:32:27.538Z,3.38
2023-01-20T19:34:57.188Z,3.49
2023-01-20T19:37:27.938Z,3.29
2023-01-20T19:39:59.735Z,3.34
2023-01-20T19:42:32.966Z,3.24
2023-01-20T19:45:02.625Z,3.37
2023-01-20T19:47:34.114Z,3.35
2023-01-20T19:50:04.106Z,3.27
2023-01-20T19:52:33.725Z,3.03
2023-01-20T19:55:04.761Z,3.38
2023-01-20T19:57:36.960Z,3.39
2023-01-20T20:00:07.860Z,3.43
2023-01-20T20:02:41.512Z,3.25
2023-01-20T20:05:12.387Z,3.19
2023-01-20T20:07:42.319Z,3.28
2023-01-20T20:10:14.454Z,3.42
2023-01-20T20:12:47.246Z,3.30
2023-01-20T20:15:17.333Z,3.37
2023-01-20T20:17:49.130Z,3.34
2023-01-20T20:20:19.550Z,3.21
2023-01-20T20:22:49.254Z,2.98
2023-01-20T20:25:18.997Z,2.60
2023-01-20T20:27:51.207Z,2.75
2023-01-20T20:30:21.561Z,2.65
2023-01-20T20:32:51.406Z,2.64
2023-01-20T20:35:21.364Z,2.63
2023-01-20T20:37:51.475Z,2.65
2023-01-20T20:40:24.952Z,2.34
2023-01-20T20:42:59.035Z,2.44
2023-01-20T20:45:28.743Z,2.67
2023-01-20T20:47:59.816Z,2.69
2023-01-20T20:50:30.004Z,2.66
2023-01-20T20:53:00.385Z,2.67
2023-01-20T20:55:29.998Z,2.55
2023-01-20T20:58:02.387Z,2.61
2023-01-20T21:00:32.291Z,2.46
2023-01-20T21:03:01.923Z,2.48
2023-01-20T21:05:31.579Z,2.43
2023-01-20T21:08:01.264Z,2.43
2023-01-20T21:10:31.014Z,2.54
2023-01-20T21:13:07.005Z,2.49
2023-01-20T21:15:37.828Z,2.49
2023-01-20T21:18:08.164Z,2.37
2023-01-20T21:20:37.796Z,2.44
2023-01-20T21:23:08.369Z,2.36
2023-01-20T21:25:38.021Z,2.30
2023-01-20T21:28:10.575Z,2.34
2023-01-20T21:30:40.685Z,2.22
2023-01-20T21:33:15.157Z,2.38
2023-01-20T21:35:44.854Z,2.36
2023-01-20T21:38:14.595Z,2.30
2023-01-20T21:40:59.829Z,2.43
2023-01-20T21:43:45.939Z,2.44
2023-01-20T21:46:15.879Z,2.30
2023-01-20T21:48:58.090Z,2.40
2023-01-20T21:51:40.426Z,2.02
2023-01-20T21:54:10.239Z,1.80
2023-01-20T21:56:39.902Z,1.77
2023-01-20T21:59:12.263Z,1.76
2023-01-20T22:01:42.030Z,1.71
2023-01-20T22:04:11.640Z,1.52
2023-01-20T22:06:41.272Z,1.66
2023-01-20T22:09:11.010Z,1.80
2023-01-20T22:11:40.749Z,1.62
2023-01-20T22:14:14.376Z,1.75
2023-01-20T22:16:44.147Z,1.65
2023-01-20T22:19:14.698Z,1.63
2023-01-20T22:21:44.794Z,1.55
2023-01-20T22:24:14.449Z,1.48
2023-01-20T22:26:44.193Z,1.49
2023-01-20T22:29:16.530Z,1.44
2023-01-20T22:31:46.571Z,1.53
2023-01-20T22:34:16.524Z,1.49
2023-01-20T22:36:46.799Z,1.39
2023-01-20T22:39:17.560Z,1.44
2023-01-20T22:41:47.280Z,1.44
2023-01-20T22:44:19.532Z,1.36
2023-01-20T22:46:49.227Z,1.36
2023-01-20T22:49:18.940Z,1.50
2023-01-20T22:51:48.726Z,1.55
2023-01-20T22:54:18.451Z,1.55
2023-01-20T22:56:48.118Z,1.65
2023-01-20T22:59:20.361Z,1.59
2023-01-20T23:01:50.053Z,1.60
2023-01-20T23:04:19.755Z,1.51
2023-01-20T23:06:49.611Z,1.44
2023-01-20T23:09:19.281Z,1.46
2023-01-20T23:11:50.206Z,1.48
2023-01-20T23:14:42.446Z,1.38
2023-01-20T23:17:12.077Z,1.28
2023-01-20T23:19:41.737Z,1.46
2023-01-20T23:22:11.381Z,1.40
2023-01-20T23:24:41.180Z,1.20
2023-01-20T23:27:10.860Z,1.45
2023-01-20T23:29:43.083Z,1.41
2023-01-20T23:32:13.032Z,1.37
2023-01-20T23:34:42.787Z,1.48
2023-01-20T23:37:12.409Z,1.47
2023-01-20T23:39:42.064Z,1.46
2023-01-20T23:42:11.718Z,1.51
2023-01-20T23:44:43.911Z,1.52
2023-01-20T23:47:13.574Z,1.43
2023-01-20T23:49:43.200Z,1.35
2023-01-20T23:52:12.891Z,1.36
2023-01-20T23:54:42.595Z,1.32
2023-01-20T23:57:12.234Z,1.41
2023-01-20T23:59:44.781Z,1.39
